Disclaimer

Please do not use the information listed here in-flight or in-navigation, as they are not provided to us by the airports but are provided by volunteers, so they might be outdated.

Search


Regions


Airport information page

Radio informations:
Tower (TWR) - 119.4 MHz
Automatic Terminal Information Service (ATIS) - 112.8 MHz
Approach (APP) - 121.2 MHz

Airport informations:
Latitude: 34° 52' 30.42" N
Longitude: 033° 37' 29.46" E
Elevation: 8 feet - 2 meters
Operating hours: 24 hour operations
Operating agency: Civil government, landing fees and diplomatic clearance may be required
Timezone: UTC+2(+3DT) - Last Sunday in March to last Sunday in October
Fuel: Jet A1, without icing nhibitor.

100/130 MIL Spec, low lead, aviation gasoline (BLUE)

Runway information:
04/22 - 9776 x 148 feet< - >2980 x 45 meters

Recent METARs:
LCLK 170900Z 33011KT 9999 FEW020 14/M01 Q1019 NOSIG
LCLK 170930Z 33011KT 9999 FEW020 14/M02 Q1019 NOSIG
LCLK 171000Z 33013KT 9999 FEW020 14/M03 Q1019 NOSIG

Airport on the map: